Latest Coastal Weather Observations for Pirlangimpi (Garden Point)

IDD60701

Issued at 9:11 am CST Monday 6 July 2015 (issued every 10 minutes, with the page automatically refreshed every 10 minutes)

About coastal observations | Map of coastal stations | Coastal observations for NT | Marine services | Other Formats
Station Details ID: 014142 Name: PIRLANGIMPI AIRPORT Lat: -11.40 Lon: 130.42 Height: 18.3 m
Data from the previous 72 hours. | See also: Recent months at Pirlangimpi (Garden Point)
Date/Time
CST
Temp

°C
Wind Pressure Rain
since 9am
mm
Weather Cloud Vis
km
Sea
Height
m
Swell
Dir
 
Speed
knots
Gust
knots
hPa Trend Height
m
Period
s
Dir
06/09:00am 25.0 E 8 15 1013.5 - 0.0 - - - - - - -
06/08:30am 24.2 ESE 4 7 1013.5 - 0.0 - - - - - - -
06/08:00am 22.5 ESE 3 5 1013.4 - 0.0 - - - - - - -
06/07:30am 21.7 ENE 3 4 1013.1 - 0.0 - - - - - - -
06/07:00am 22.0 ENE 2 3 1012.8 - 0.0 - - - - - - -
06/06:30am 22.0 E 2 3 1012.6 - 0.0 - - - - - - -
06/06:00am 22.1 ESE 3 5 1012.4 - 0.0 - - - - - - -
06/05:30am 21.8 ESE 3 4 1012.6 - 0.0 - - - - - - -
06/05:00am 21.5 ESE 3 3 1012.6 - 0.0 - - - - - - -
06/04:30am 20.9 SE 1 2 1012.5 - 0.0 - - - - - - -
06/04:00am 21.9 ESE 2 2 1012.3 - 0.0 - - - - - - -
06/03:30am 21.9 ESE 2 2 1012.2 - 0.0 - - - - - - -
06/03:00am 21.7 SE 2 3 1012.3 - 0.0 - - - - - - -
06/02:30am 21.7 CALM 0 2 1012.3 - 0.0 - - - - - - -
06/02:00am 22.1 CALM 0 2 1012.4 - 0.0 - - - - - - -
06/01:30am 21.9 CALM 0 0 1012.4 - 0.0 - - - - - - -
06/01:00am 22.9 CALM 0 0 1012.3 - 0.0 - - - - - - -
06/12:30am 23.3 ENE 1 2 1012.2 - 0.0 - - - - - - -
06/12:00am 23.4 NE 2 3 1012.6 - 0.0 - - - - - - -
 
Date/Time
CST
Temp

°C
Wind Pressure Rain
since 9am
mm
Weather Cloud Vis
km
Sea
Height
m
Swell
Dir
 
Speed
knots
Gust
knots
hPa Trend Height
m
Period
s
Dir
05/11:30pm 23.8 ENE 1 2 1012.7 - 0.0 - - - - - - -
05/11:00pm 24.0 E 2 3 1012.8 - 0.0 - - - - - - -
05/10:30pm 23.6 NE 2 3 1013.1 - 0.0 - - - - - - -
05/10:00pm 23.8 CALM 0 0 1013.4 - 0.0 - - - - - - -
05/09:30pm 24.0 CALM 0 0 1013.3 - 0.0 - - - - - - -
05/09:00pm 24.0 CALM 0 0 1013.2 - 0.0 - - - - - - -
05/08:30pm 24.3 CALM 0 0 1013.2 - 0.0 - - - - - - -
05/08:00pm 24.4 CALM 0 0 1013.0 - 0.0 - - - - - - -
05/07:30pm 24.8 CALM 0 0 1012.7 - 0.0 - - - - - - -
05/07:00pm 25.3 CALM 0 0 1012.7 - 0.0 - - - - - - -
05/06:30pm 25.6 ENE 1 2 1012.5 - 0.0 - - - - - - -
05/06:00pm 25.9 E 1 3 1012.4 - 0.0 - - - - - - -
05/05:30pm 26.3 SE 2 4 1012.0 - 0.0 - - - - - - -
05/05:00pm 26.9 SE 3 4 1011.8 - 0.0 - - - - - - -
05/04:30pm 27.1 SSE 3 5 1011.8 - 0.0 - - - - - - -
05/04:00pm 27.5 SSW 4 7 1011.8 - 0.0 - - - - - - -
05/03:30pm 28.9 SSW 7 9 1011.7 - 0.0 - - - - - - -
05/03:00pm 29.1 SSW 7 9 1011.9 - 0.0 - - - - - - -
05/02:30pm 28.9 SSW 7 10 1012.4 - 0.0 - - - - - - -
05/02:00pm 29.1 SW 3 7 1012.8 - 0.0 - - - - - - -
05/01:30pm 29.6 SSW 5 8 1013.2 - 0.0 - - - - - - -
05/01:00pm 28.1 SSW 3 5 1013.7 - 0.0 - - - - - - -
05/12:30pm 28.0 SSW 5 7 1014.1 - 0.0 - - - - - - -
05/12:00pm 27.5 SSW 4 6 1014.5 - 0.0 - - - - - - -
05/11:30am 28.3 SSW 6 9 1014.7 - 0.0 - - - - - - -
05/11:00am 28.3 SW 4 8 1014.8 - 0.0 - - - - - - -
05/10:30am 27.6 SW 4 6 1015.0 - 0.0 - - - - - - -
05/10:00am 26.1 SSE 2 3 1015.0 - 0.0 - - - - - - -
05/09:30am 24.0 SSE 3 4 1015.1 - 0.0 - - - - - - -
05/09:00am 22.0 S 2 3 1015.0 - 0.0 - - - - - - -
05/08:30am 20.1 SSE 1 2 1014.8 - 0.0 - - - - - - -
05/08:00am 17.6 CALM 0 0 1014.6 - 0.0 - - - - - - -
05/07:30am 16.0 ESE 1 2 1014.4 - 0.0 - - - - - - -
05/07:00am 15.7 CALM 0 0 1014.1 - 0.0 - - - - - - -
05/06:30am 15.8 NE 1 3 1013.8 - 0.0 - - - - - - -
05/06:00am 15.9 ENE 1 3 1013.7 - 0.0 - - - - - - -
05/05:30am 16.2 ENE 1 1 1013.5 - 0.0 - - - - - - -
05/05:00am 16.5 NE 1 2 1013.3 - 0.0 - - - - - - -
05/04:30am 16.9 CALM 0 1 1013.2 - 0.0 - - - - - - -
05/04:00am 17.4 CALM 0 1 1013.0 - 0.0 - - - - - - -
05/03:30am 17.2 ENE 1 1 1013.0 - 0.0 - - - - - - -
05/03:00am 17.3 ENE 2 3 1013.2 - 0.0 - - - - - - -
05/02:30am 17.4 NE 2 3 1013.5 - 0.0 - - - - - - -
05/02:00am 17.6 NE 2 3 1013.5 - 0.0 - - - - - - -
05/01:30am 17.7 CALM 0 2 1013.6 - 0.0 - - - - - - -
05/01:00am 18.2 CALM 0 0 1013.9 - 0.0 - - - - - - -
05/12:30am 18.4 CALM 0 0 1013.7 - 0.0 - - - - - - -
05/12:00am 18.7 CALM 0 0 1013.7 - 0.0 - - - - - - -
 
Date/Time
CST
Temp

°C
Wind Pressure Rain
since 9am
mm
Weather Cloud Vis
km
Sea
Height
m
Swell
Dir
 
Speed
knots
Gust
knots
hPa Trend Height
m
Period
s
Dir
04/11:30pm 19.1 CALM 0 0 1013.6 - 0.0 - - - - - - -
04/11:00pm 19.4 CALM 0 0 1013.7 - 0.0 - - - - - - -
04/10:30pm 19.8 CALM 0 0 1013.8 - 0.0 - - - - - - -
04/10:00pm 20.0 CALM 0 0 1013.8 - 0.0 - - - - - - -
04/09:30pm 20.4 ENE 1 2 1013.7 - 0.0 - - - - - - -
04/09:00pm 20.6 CALM 0 0 1013.5 - 0.0 - - - - - - -
04/08:30pm 21.2 CALM 0 0 1013.2 - 0.0 - - - - - - -
04/08:00pm 21.7 CALM 0 0 1012.7 - 0.0 - - - - - - -
04/07:30pm 22.7 CALM 0 0 1012.2 - 0.0 - - - - - - -
04/07:00pm 24.1 CALM 0 0 1011.9 - 0.0 - - - - - - -
04/06:30pm 25.5 NNW 2 3 1011.8 - 0.0 - - - - - - -
04/06:00pm 26.6 NNE 3 6 1011.5 - 0.0 - - - - - - -
04/05:30pm 28.8 ENE 4 6 1011.1 - 0.0 - - - - - - -
04/05:00pm 30.3 E 2 5 1010.9 - 0.0 - - - - - - -
04/04:30pm 30.5 ENE 4 7 1010.7 - 0.0 - - - - - - -
04/04:00pm 31.3 ENE 4 8 1010.6 - 0.0 - - - - - - -
04/03:30pm 31.4 SSE 7 10 1010.5 - 0.0 - - - - - - -
04/03:00pm 31.5 SE 4 7 1010.8 - 0.0 - - - - - - -
04/02:30pm 31.6 ENE 7 10 1011.2 - 0.0 - - - - - - -
04/02:00pm 31.5 SE 6 11 1011.7 - 0.0 - - - - - - -
04/01:30pm 31.1 E 6 11 1012.3 - 0.0 - - - - - - -
04/01:00pm 30.8 E 6 13 1012.9 - 0.0 - - - - - - -
04/12:30pm 29.4 E 8 12 1013.3 - 0.0 - - - - - - -
04/12:00pm 28.8 E 8 13 1013.8 - 0.0 - - - - - - -
04/11:30am 28.8 E 8 13 1014.2 - 0.0 - - - - - - -
04/11:00am 27.9 E 7 9 1014.7 - 0.0 - - - - - - -
04/10:30am 27.1 ESE 5 9 1015.0 - 0.0 - - - - - - -
04/10:00am 26.4 E 6 10 1015.2 - 0.0 - - - - - - -
04/09:30am 25.8 E 5 8 1015.4 - 0.0 - - - - - - -
04/09:00am 24.5 E 5 8 1015.3 - 0.0 - - - - - - -
04/08:30am 23.1 E 3 5 1015.1 - 0.0 - - - - - - -
04/08:00am 21.4 E 4 6 1014.9 - 0.0 - - - - - - -
04/07:30am 19.9 E 4 5 1014.7 - 0.0 - - - - - - -
04/07:00am 19.1 E 3 4 1014.6 - 0.0 - - - - - - -
04/06:30am 18.5 ENE 1 1 1014.3 - 0.0 - - - - - - -
04/06:00am 19.5 SE 2 2 1014.2 - 0.0 - - - - - - -
04/05:30am 19.4 SE 2 3 1014.0 - 0.0 - - - - - - -
04/05:00am 19.4 SE 2 2 1013.8 - 0.0 - - - - - - -
04/04:30am 19.7 ESE 2 3 1013.6 - 0.0 - - - - - - -
04/04:00am 19.8 SE 2 3 1013.6 - 0.0 - - - - - - -
04/03:30am 19.8 SE 2 3 1013.6 - 0.0 - - - - - - -
04/03:00am 20.3 SE 2 3 1013.7 - 0.0 - - - - - - -
04/02:30am 20.4 SSE 2 3 1014.0 - 0.0 - - - - - - -
04/02:00am 20.7 SSE 2 3 1014.2 - 0.0 - - - - - - -
04/01:30am 21.1 SE 2 4 1014.2 - 0.0 - - - - - - -
04/01:00am 20.7 SE 2 3 1014.3 - 0.0 - - - - - - -
04/12:30am 19.7 SE 2 3 1014.4 - 0.0 - - - - - - -
04/12:00am 20.0 SSW 2 3 1014.4 - 0.0 - - - - - - -
 
Date/Time
CST
Temp

°C
Wind Pressure Rain
since 9am
mm
Weather Cloud Vis
km
Sea
Height
m
Swell
Dir
 
Speed
knots
Gust
knots
hPa Trend Height
m
Period
s
Dir
03/11:30pm 20.3 CALM 0 0 1014.2 - 0.0 - - - - - - -
03/11:00pm 20.5 CALM 0 0 1014.2 - 0.0 - - - - - - -
03/10:30pm 21.1 CALM 0 0 1014.2 - 0.0 - - - - - - -
03/10:00pm 21.6 CALM 0 0 1014.1 - 0.0 - - - - - - -
03/09:30pm 21.8 CALM 0 2 1013.8 - 0.0 - - - - - - -
03/09:00pm 22.2 CALM 0 0 1013.6 - 0.0 - - - - - - -
03/08:30pm 23.1 CALM 0 1 1013.3 - 0.0 - - - - - - -
03/08:00pm 23.6 NE 1 3 1013.0 - 0.0 - - - - - - -
03/07:30pm 24.1 ENE 2 3 1012.7 - 0.0 - - - - - - -
03/07:00pm 25.1 NE 2 4 1012.5 - 0.0 - - - - - - -
03/06:30pm 27.2 ENE 4 6 1012.2 - 0.0 - - - - - - -
03/06:00pm 28.1 ENE 7 10 1012.0 - 0.0 - - - - - - -
03/05:30pm 29.0 ENE 7 12 1012.0 - 0.0 - - - - - - -
03/05:00pm 29.6 E 7 12 1011.7 - 0.0 - - - - - - -
03/04:30pm 30.4 ENE 9 16 1011.7 - 0.0 - - - - - - -
03/04:00pm 30.1 ESE 7 11 1011.9 - 0.0 - - - - - - -
03/03:30pm 31.1 E 8 13 1012.1 - 0.0 - - - - - - -
03/03:00pm 30.9 E 9 15 1012.3 - 0.0 - - - - - - -
03/02:30pm 30.8 E 10 15 1012.7 - 0.0 - - - - - - -
03/02:00pm 30.8 ESE 8 12 1012.9 - 0.0 - - - - - - -
03/01:30pm 30.6 E 12 17 1013.3 - 0.0 - - - - - - -
03/01:00pm 30.4 E 9 14 1013.7 - 0.0 - - - - - - -
03/12:30pm 30.3 E 9 17 1014.3 - 0.0 - - - - - - -
03/12:00pm 30.6 E 8 14 1014.7 - 0.0 - - - - - - -
03/11:30am 29.8 E 8 13 1015.0 - 0.0 - - - - - - -
03/11:00am 29.4 E 8 16 1015.4 - 0.0 - - - - - - -
03/10:30am 28.4 E 8 13 1015.8 - 0.0 - - - - - - -
03/10:00am 27.4 ESE 7 10 1015.9 - 0.0 - - - - - - -
03/09:30am 26.2 ESE 7 11 1016.1 - 0.0 - - - - - - -

Other Formats:

Comma delimited format used in spreadsheet applications
http://www.bom.gov.au/fwo/IDD60701/IDD60701.94119.axf

JavaScript Object Notation format (JSON) in row-major order
http://www.bom.gov.au/fwo/IDD60701/IDD60701.94119.json